sensor_id;sensor_type;location;lat;lon;timestamp;P1;durP1;ratioP1;P2;durP2;ratioP2
28335;SDS011;15592;53.656;7.276;2023-03-29T00:00:24;24.52;;;9.60;;
28335;SDS011;15592;53.656;7.276;2023-03-29T00:02:50;23.58;;;11.15;;
28335;SDS011;15592;53.656;7.276;2023-03-29T00:05:16;25.25;;;11.40;;
28335;SDS011;15592;53.656;7.276;2023-03-29T00:07:44;19.70;;;9.98;;
28335;SDS011;15592;53.656;7.276;2023-03-29T00:10:10;23.05;;;10.73;;
28335;SDS011;15592;53.656;7.276;2023-03-29T00:12:39;20.42;;;10.52;;
28335;SDS011;15592;53.656;7.276;2023-03-29T00:15:06;20.35;;;10.32;;
28335;SDS011;15592;53.656;7.276;2023-03-29T00:17:32;20.05;;;9.75;;
28335;SDS011;15592;53.656;7.276;2023-03-29T00:19:58;21.77;;;10.68;;
28335;SDS011;15592;53.656;7.276;2023-03-29T00:22:24;21.27;;;10.07;;
28335;SDS011;15592;53.656;7.276;2023-03-29T00:24:53;19.02;;;9.68;;
28335;SDS011;15592;53.656;7.276;2023-03-29T00:27:19;18.17;;;10.00;;
28335;SDS011;15592;53.656;7.276;2023-03-29T00:29:46;17.58;;;9.63;;
28335;SDS011;15592;53.656;7.276;2023-03-29T00:32:11;23.25;;;10.10;;
28335;SDS011;15592;53.656;7.276;2023-03-29T00:34:38;20.83;;;10.10;;
28335;SDS011;15592;53.656;7.276;2023-03-29T00:37:06;25.92;;;9.98;;
28335;SDS011;15592;53.656;7.276;2023-03-29T00:39:33;19.02;;;9.32;;
28335;SDS011;15592;53.656;7.276;2023-03-29T00:41:59;18.30;;;9.30;;
28335;SDS011;15592;53.656;7.276;2023-03-29T00:47:24;19.38;;;8.48;;
28335;SDS011;15592;53.656;7.276;2023-03-29T00:49:54;18.25;;;9.13;;
28335;SDS011;15592;53.656;7.276;2023-03-29T00:52:24;18.30;;;8.93;;
28335;SDS011;15592;53.656;7.276;2023-03-29T00:54:54;21.10;;;9.57;;
28335;SDS011;15592;53.656;7.276;2023-03-29T00:57:25;20.10;;;8.98;;
28335;SDS011;15592;53.656;7.276;2023-03-29T00:59:54;18.10;;;9.63;;
28335;SDS011;15592;53.656;7.276;2023-03-29T01:02:21;14.90;;;7.97;;
28335;SDS011;15592;53.656;7.276;2023-03-29T01:05:06;19.15;;;8.45;;
28335;SDS011;15592;53.656;7.276;2023-03-29T01:07:37;16.83;;;8.70;;
28335;SDS011;15592;53.656;7.276;2023-03-29T01:10:13;18.35;;;8.43;;
28335;SDS011;15592;53.656;7.276;2023-03-29T01:12:44;19.08;;;8.77;;
28335;SDS011;15592;53.656;7.276;2023-03-29T01:15:19;14.02;;;7.90;;
28335;SDS011;15592;53.656;7.276;2023-03-29T01:17:49;14.93;;;7.85;;
28335;SDS011;15592;53.656;7.276;2023-03-29T01:20:21;14.27;;;7.93;;
28335;SDS011;15592;53.656;7.276;2023-03-29T01:25:46;16.05;;;7.63;;
28335;SDS011;15592;53.656;7.276;2023-03-29T01:28:43;13.98;;;7.57;;
28335;SDS011;15592;53.656;7.276;2023-03-29T01:31:15;12.93;;;6.85;;
28335;SDS011;15592;53.656;7.276;2023-03-29T01:34:13;13.50;;;7.50;;
28335;SDS011;15592;53.656;7.276;2023-03-29T01:39:37;10.60;;;7.32;;
28335;SDS011;15592;53.656;7.276;2023-03-29T01:42:13;14.88;;;6.97;;
28335;SDS011;15592;53.656;7.276;2023-03-29T01:44:48;13.43;;;7.03;;
28335;SDS011;15592;53.656;7.276;2023-03-29T01:47:26;13.85;;;7.15;;
28335;SDS011;15592;53.656;7.276;2023-03-29T01:50:23;13.93;;;6.72;;
28335;SDS011;15592;53.656;7.276;2023-03-29T01:53:07;16.08;;;7.25;;
28335;SDS011;15592;53.656;7.276;2023-03-29T01:55:43;12.82;;;6.70;;
28335;SDS011;15592;53.656;7.276;2023-03-29T01:58:14;11.82;;;6.45;;
28335;SDS011;15592;53.656;7.276;2023-03-29T02:00:42;10.85;;;5.80;;
28335;SDS011;15592;53.656;7.276;2023-03-29T02:03:09;16.88;;;7.78;;
28335;SDS011;15592;53.656;7.276;2023-03-29T02:05:36;11.80;;;6.72;;
28335;SDS011;15592;53.656;7.276;2023-03-29T02:08:03;9.00;;;6.18;;
28335;SDS011;15592;53.656;7.276;2023-03-29T02:10:32;13.13;;;6.45;;
28335;SDS011;15592;53.656;7.276;2023-03-29T02:12:59;10.88;;;6.07;;
28335;SDS011;15592;53.656;7.276;2023-03-29T02:15:25;13.15;;;6.00;;
28335;SDS011;15592;53.656;7.276;2023-03-29T02:17:50;10.90;;;5.75;;
28335;SDS011;15592;53.656;7.276;2023-03-29T02:23:00;10.02;;;5.78;;
28335;SDS011;15592;53.656;7.276;2023-03-29T02:25:33;11.27;;;5.90;;
28335;SDS011;15592;53.656;7.276;2023-03-29T02:28:01;9.75;;;5.85;;
28335;SDS011;15592;53.656;7.276;2023-03-29T02:30:35;13.77;;;5.93;;
28335;SDS011;15592;53.656;7.276;2023-03-29T02:36:35;10.20;;;5.72;;
28335;SDS011;15592;53.656;7.276;2023-03-29T02:39:08;12.63;;;6.03;;
28335;SDS011;15592;53.656;7.276;2023-03-29T02:41:37;10.13;;;6.47;;
28335;SDS011;15592;53.656;7.276;2023-03-29T02:44:04;8.68;;;5.85;;
28335;SDS011;15592;53.656;7.276;2023-03-29T02:46:34;10.20;;;6.25;;
28335;SDS011;15592;53.656;7.276;2023-03-29T02:49:02;10.85;;;6.25;;
28335;SDS011;15592;53.656;7.276;2023-03-29T02:51:30;10.63;;;6.35;;
28335;SDS011;15592;53.656;7.276;2023-03-29T02:56:59;8.15;;;5.65;;
28335;SDS011;15592;53.656;7.276;2023-03-29T02:59:28;11.32;;;6.30;;
28335;SDS011;15592;53.656;7.276;2023-03-29T03:01:54;10.57;;;6.45;;
28335;SDS011;15592;53.656;7.276;2023-03-29T03:04:20;8.75;;;6.30;;
28335;SDS011;15592;53.656;7.276;2023-03-29T03:06:46;9.90;;;6.70;;
28335;SDS011;15592;53.656;7.276;2023-03-29T03:09:12;12.70;;;6.30;;
28335;SDS011;15592;53.656;7.276;2023-03-29T03:11:38;9.85;;;6.13;;
28335;SDS011;15592;53.656;7.276;2023-03-29T03:14:04;11.57;;;6.47;;
28335;SDS011;15592;53.656;7.276;2023-03-29T03:16:31;9.38;;;6.38;;
28335;SDS011;15592;53.656;7.276;2023-03-29T03:18:57;12.52;;;6.88;;
28335;SDS011;15592;53.656;7.276;2023-03-29T03:21:23;10.70;;;6.35;;
28335;SDS011;15592;53.656;7.276;2023-03-29T03:23:49;10.63;;;6.15;;
28335;SDS011;15592;53.656;7.276;2023-03-29T03:26:16;13.95;;;7.00;;
28335;SDS011;15592;53.656;7.276;2023-03-29T03:28:42;14.95;;;7.40;;
28335;SDS011;15592;53.656;7.276;2023-03-29T03:31:09;12.05;;;7.15;;
28335;SDS011;15592;53.656;7.276;2023-03-29T03:33:35;11.15;;;7.38;;
28335;SDS011;15592;53.656;7.276;2023-03-29T03:36:01;10.75;;;6.88;;
28335;SDS011;15592;53.656;7.276;2023-03-29T03:38:33;12.13;;;7.40;;
28335;SDS011;15592;53.656;7.276;2023-03-29T03:41:00;11.73;;;7.10;;
28335;SDS011;15592;53.656;7.276;2023-03-29T03:43:26;11.95;;;8.02;;
28335;SDS011;15592;53.656;7.276;2023-03-29T03:45:53;11.82;;;7.10;;
28335;SDS011;15592;53.656;7.276;2023-03-29T03:48:19;13.10;;;6.80;;
28335;SDS011;15592;53.656;7.276;2023-03-29T03:53:21;13.35;;;8.23;;
28335;SDS011;15592;53.656;7.276;2023-03-29T03:55:47;12.45;;;7.22;;
28335;SDS011;15592;53.656;7.276;2023-03-29T03:58:17;11.00;;;6.82;;
28335;SDS011;15592;53.656;7.276;2023-03-29T04:00:43;12.45;;;7.45;;
28335;SDS011;15592;53.656;7.276;2023-03-29T04:03:12;14.88;;;8.68;;
28335;SDS011;15592;53.656;7.276;2023-03-29T04:05:41;14.18;;;7.28;;
28335;SDS011;15592;53.656;7.276;2023-03-29T04:08:08;12.55;;;7.32;;
28335;SDS011;15592;53.656;7.276;2023-03-29T04:10:36;11.18;;;8.18;;
28335;SDS011;15592;53.656;7.276;2023-03-29T04:13:03;14.93;;;7.85;;
28335;SDS011;15592;53.656;7.276;2023-03-29T04:15:29;10.25;;;7.70;;
28335;SDS011;15592;53.656;7.276;2023-03-29T04:17:56;12.40;;;7.75;;
28335;SDS011;15592;53.656;7.276;2023-03-29T04:20:23;17.20;;;9.23;;
28335;SDS011;15592;53.656;7.276;2023-03-29T04:22:49;15.98;;;9.02;;
28335;SDS011;15592;53.656;7.276;2023-03-29T04:25:15;14.90;;;8.45;;
28335;SDS011;15592;53.656;7.276;2023-03-29T04:27:41;16.08;;;8.75;;
28335;SDS011;15592;53.656;7.276;2023-03-29T04:30:08;18.35;;;9.57;;
28335;SDS011;15592;53.656;7.276;2023-03-29T04:32:35;17.88;;;8.55;;
28335;SDS011;15592;53.656;7.276;2023-03-29T04:35:01;16.02;;;9.55;;
28335;SDS011;15592;53.656;7.276;2023-03-29T04:37:28;16.08;;;9.40;;
28335;SDS011;15592;53.656;7.276;2023-03-29T04:39:55;16.30;;;9.93;;
28335;SDS011;15592;53.656;7.276;2023-03-29T04:42:21;15.98;;;9.65;;
28335;SDS011;15592;53.656;7.276;2023-03-29T04:44:47;19.75;;;11.05;;
28335;SDS011;15592;53.656;7.276;2023-03-29T04:47:12;15.43;;;10.32;;
28335;SDS011;15592;53.656;7.276;2023-03-29T04:49:39;20.13;;;11.32;;
28335;SDS011;15592;53.656;7.276;2023-03-29T04:52:05;19.33;;;12.07;;
28335;SDS011;15592;53.656;7.276;2023-03-29T04:54:31;21.90;;;11.85;;
28335;SDS011;15592;53.656;7.276;2023-03-29T04:56:57;24.45;;;13.48;;
28335;SDS011;15592;53.656;7.276;2023-03-29T04:59:23;22.55;;;12.60;;
28335;SDS011;15592;53.656;7.276;2023-03-29T05:01:49;20.63;;;12.80;;
28335;SDS011;15592;53.656;7.276;2023-03-29T05:04:15;21.40;;;13.23;;
28335;SDS011;15592;53.656;7.276;2023-03-29T05:06:42;25.70;;;13.95;;
28335;SDS011;15592;53.656;7.276;2023-03-29T05:09:07;25.17;;;13.20;;
28335;SDS011;15592;53.656;7.276;2023-03-29T05:11:34;25.05;;;14.32;;
28335;SDS011;15592;53.656;7.276;2023-03-29T05:14:00;23.85;;;13.60;;
28335;SDS011;15592;53.656;7.276;2023-03-29T05:16:30;27.33;;;15.40;;
28335;SDS011;15592;53.656;7.276;2023-03-29T05:18:56;26.05;;;15.43;;
28335;SDS011;15592;53.656;7.276;2023-03-29T05:21:22;29.40;;;15.63;;
28335;SDS011;15592;53.656;7.276;2023-03-29T05:23:50;27.95;;;16.20;;
28335;SDS011;15592;53.656;7.276;2023-03-29T05:26:16;26.55;;;15.52;;
28335;SDS011;15592;53.656;7.276;2023-03-29T05:28:41;31.20;;;16.85;;
28335;SDS011;15592;53.656;7.276;2023-03-29T05:31:08;27.38;;;16.05;;
28335;SDS011;15592;53.656;7.276;2023-03-29T05:33:34;28.15;;;17.30;;
28335;SDS011;15592;53.656;7.276;2023-03-29T05:36:00;29.80;;;17.38;;
28335;SDS011;15592;53.656;7.276;2023-03-29T05:38:28;29.92;;;17.48;;
28335;SDS011;15592;53.656;7.276;2023-03-29T05:40:54;27.33;;;16.27;;
28335;SDS011;15592;53.656;7.276;2023-03-29T05:43:20;29.92;;;18.05;;
28335;SDS011;15592;53.656;7.276;2023-03-29T05:45:46;30.52;;;17.45;;
28335;SDS011;15592;53.656;7.276;2023-03-29T05:48:11;31.45;;;17.55;;
28335;SDS011;15592;53.656;7.276;2023-03-29T05:50:37;34.33;;;19.23;;
28335;SDS011;15592;53.656;7.276;2023-03-29T05:53:03;36.22;;;19.08;;
28335;SDS011;15592;53.656;7.276;2023-03-29T05:55:28;33.17;;;18.15;;
28335;SDS011;15592;53.656;7.276;2023-03-29T05:57:54;34.53;;;19.15;;
28335;SDS011;15592;53.656;7.276;2023-03-29T06:00:20;32.17;;;19.00;;
28335;SDS011;15592;53.656;7.276;2023-03-29T06:02:47;32.13;;;19.40;;
28335;SDS011;15592;53.656;7.276;2023-03-29T06:05:14;38.20;;;19.60;;
28335;SDS011;15592;53.656;7.276;2023-03-29T06:07:40;35.45;;;19.75;;
28335;SDS011;15592;53.656;7.276;2023-03-29T06:10:06;37.25;;;21.08;;
28335;SDS011;15592;53.656;7.276;2023-03-29T06:12:33;34.45;;;18.88;;
28335;SDS011;15592;53.656;7.276;2023-03-29T06:14:59;37.20;;;21.10;;
28335;SDS011;15592;53.656;7.276;2023-03-29T06:17:29;37.55;;;21.52;;
28335;SDS011;15592;53.656;7.276;2023-03-29T06:19:58;32.35;;;18.90;;
28335;SDS011;15592;53.656;7.276;2023-03-29T06:22:24;39.70;;;21.67;;
28335;SDS011;15592;53.656;7.276;2023-03-29T06:24:51;39.00;;;20.70;;
28335;SDS011;15592;53.656;7.276;2023-03-29T06:27:17;36.03;;;20.30;;
28335;SDS011;15592;53.656;7.276;2023-03-29T06:29:43;38.20;;;21.45;;
28335;SDS011;15592;53.656;7.276;2023-03-29T06:32:09;40.88;;;22.25;;
28335;SDS011;15592;53.656;7.276;2023-03-29T06:34:35;35.03;;;19.60;;
28335;SDS011;15592;53.656;7.276;2023-03-29T06:37:01;37.03;;;21.35;;
28335;SDS011;15592;53.656;7.276;2023-03-29T06:39:27;39.00;;;21.98;;
28335;SDS011;15592;53.656;7.276;2023-03-29T06:41:54;36.95;;;21.60;;
28335;SDS011;15592;53.656;7.276;2023-03-29T06:44:20;40.95;;;21.45;;
28335;SDS011;15592;53.656;7.276;2023-03-29T06:46:45;42.60;;;22.42;;
28335;SDS011;15592;53.656;7.276;2023-03-29T06:49:11;39.13;;;21.98;;
28335;SDS011;15592;53.656;7.276;2023-03-29T06:51:37;44.63;;;23.17;;
28335;SDS011;15592;53.656;7.276;2023-03-29T06:54:04;36.75;;;21.13;;
28335;SDS011;15592;53.656;7.276;2023-03-29T06:56:30;41.58;;;22.33;;
28335;SDS011;15592;53.656;7.276;2023-03-29T06:58:56;36.60;;;21.63;;
28335;SDS011;15592;53.656;7.276;2023-03-29T07:01:21;39.00;;;21.65;;
28335;SDS011;15592;53.656;7.276;2023-03-29T07:03:47;37.70;;;22.23;;
28335;SDS011;15592;53.656;7.276;2023-03-29T07:06:13;43.40;;;23.08;;
28335;SDS011;15592;53.656;7.276;2023-03-29T07:08:41;36.55;;;21.77;;
28335;SDS011;15592;53.656;7.276;2023-03-29T07:11:10;44.28;;;23.35;;
28335;SDS011;15592;53.656;7.276;2023-03-29T07:13:38;41.20;;;23.85;;
28335;SDS011;15592;53.656;7.276;2023-03-29T07:16:04;39.13;;;23.10;;
28335;SDS011;15592;53.656;7.276;2023-03-29T07:18:30;41.08;;;22.88;;
28335;SDS011;15592;53.656;7.276;2023-03-29T07:20:56;38.90;;;22.88;;
28335;SDS011;15592;53.656;7.276;2023-03-29T07:23:22;40.30;;;23.40;;
28335;SDS011;15592;53.656;7.276;2023-03-29T07:25:47;41.72;;;23.15;;
28335;SDS011;15592;53.656;7.276;2023-03-29T07:28:13;40.15;;;25.05;;
28335;SDS011;15592;53.656;7.276;2023-03-29T07:30:38;40.75;;;23.30;;
28335;SDS011;15592;53.656;7.276;2023-03-29T07:33:04;41.25;;;24.20;;
28335;SDS011;15592;53.656;7.276;2023-03-29T07:35:30;43.15;;;23.95;;
28335;SDS011;15592;53.656;7.276;2023-03-29T07:37:56;41.03;;;23.85;;
28335;SDS011;15592;53.656;7.276;2023-03-29T07:40:22;39.65;;;23.92;;
28335;SDS011;15592;53.656;7.276;2023-03-29T07:42:49;47.05;;;25.50;;
28335;SDS011;15592;53.656;7.276;2023-03-29T07:45:21;41.10;;;24.65;;
28335;SDS011;15592;53.656;7.276;2023-03-29T07:47:49;43.88;;;24.33;;
28335;SDS011;15592;53.656;7.276;2023-03-29T07:50:18;42.72;;;24.90;;
28335;SDS011;15592;53.656;7.276;2023-03-29T07:52:44;42.05;;;24.95;;
28335;SDS011;15592;53.656;7.276;2023-03-29T07:55:10;40.80;;;24.63;;
28335;SDS011;15592;53.656;7.276;2023-03-29T07:57:37;41.35;;;24.00;;
28335;SDS011;15592;53.656;7.276;2023-03-29T08:00:03;41.75;;;25.33;;
28335;SDS011;15592;53.656;7.276;2023-03-29T08:02:38;41.63;;;23.33;;
28335;SDS011;15592;53.656;7.276;2023-03-29T08:05:04;46.88;;;24.70;;
28335;SDS011;15592;53.656;7.276;2023-03-29T08:07:30;43.95;;;24.50;;
28335;SDS011;15592;53.656;7.276;2023-03-29T08:09:56;40.20;;;25.13;;
28335;SDS011;15592;53.656;7.276;2023-03-29T08:12:22;41.08;;;24.63;;
28335;SDS011;15592;53.656;7.276;2023-03-29T08:14:48;44.75;;;25.38;;
28335;SDS011;15592;53.656;7.276;2023-03-29T08:17:13;42.80;;;25.23;;
28335;SDS011;15592;53.656;7.276;2023-03-29T08:19:39;39.03;;;24.67;;
28335;SDS011;15592;53.656;7.276;2023-03-29T08:22:05;38.55;;;24.73;;
28335;SDS011;15592;53.656;7.276;2023-03-29T08:24:31;42.88;;;25.23;;
28335;SDS011;15592;53.656;7.276;2023-03-29T08:26:56;43.03;;;24.45;;
28335;SDS011;15592;53.656;7.276;2023-03-29T08:29:22;40.35;;;23.83;;
28335;SDS011;15592;53.656;7.276;2023-03-29T08:31:47;39.40;;;23.65;;
28335;SDS011;15592;53.656;7.276;2023-03-29T08:34:13;37.92;;;23.05;;
28335;SDS011;15592;53.656;7.276;2023-03-29T08:36:40;39.95;;;23.65;;
28335;SDS011;15592;53.656;7.276;2023-03-29T08:39:05;35.33;;;23.23;;
28335;SDS011;15592;53.656;7.276;2023-03-29T08:47:38;38.83;;;23.10;;
28335;SDS011;15592;53.656;7.276;2023-03-29T08:50:14;40.08;;;23.38;;
28335;SDS011;15592;53.656;7.276;2023-03-29T08:55:26;45.55;;;24.60;;
28335;SDS011;15592;53.656;7.276;2023-03-29T08:57:58;43.45;;;23.75;;
28335;SDS011;15592;53.656;7.276;2023-03-29T09:03:06;36.53;;;24.83;;
28335;SDS011;15592;53.656;7.276;2023-03-29T09:05:45;41.00;;;24.95;;
28335;SDS011;15592;53.656;7.276;2023-03-29T09:08:14;39.70;;;24.83;;
28335;SDS011;15592;53.656;7.276;2023-03-29T09:10:45;47.80;;;24.92;;
28335;SDS011;15592;53.656;7.276;2023-03-29T09:13:33;41.60;;;24.83;;
28335;SDS011;15592;53.656;7.276;2023-03-29T09:19:00;42.28;;;25.73;;
28335;SDS011;15592;53.656;7.276;2023-03-29T09:27:20;37.92;;;23.23;;
28335;SDS011;15592;53.656;7.276;2023-03-29T09:32:30;35.95;;;22.20;;
28335;SDS011;15592;53.656;7.276;2023-03-29T09:37:46;40.08;;;23.17;;
28335;SDS011;15592;53.656;7.276;2023-03-29T09:40:17;36.63;;;21.85;;
28335;SDS011;15592;53.656;7.276;2023-03-29T09:42:48;37.95;;;22.27;;
28335;SDS011;15592;53.656;7.276;2023-03-29T09:45:16;35.30;;;20.63;;
28335;SDS011;15592;53.656;7.276;2023-03-29T09:47:44;37.80;;;22.30;;
28335;SDS011;15592;53.656;7.276;2023-03-29T09:50:17;36.47;;;21.77;;
28335;SDS011;15592;53.656;7.276;2023-03-29T09:52:48;34.28;;;20.67;;
28335;SDS011;15592;53.656;7.276;2023-03-29T09:55:15;30.90;;;19.75;;
28335;SDS011;15592;53.656;7.276;2023-03-29T09:57:43;36.95;;;20.48;;
28335;SDS011;15592;53.656;7.276;2023-03-29T10:00:10;31.45;;;19.38;;
28335;SDS011;15592;53.656;7.276;2023-03-29T10:02:37;38.45;;;21.95;;
28335;SDS011;15592;53.656;7.276;2023-03-29T10:05:04;30.55;;;18.95;;
28335;SDS011;15592;53.656;7.276;2023-03-29T10:07:43;29.15;;;18.83;;
28335;SDS011;15592;53.656;7.276;2023-03-29T10:10:21;29.27;;;18.55;;
28335;SDS011;15592;53.656;7.276;2023-03-29T10:12:51;34.00;;;19.25;;
28335;SDS011;15592;53.656;7.276;2023-03-29T10:15:20;30.83;;;19.27;;
28335;SDS011;15592;53.656;7.276;2023-03-29T10:17:47;31.73;;;18.85;;
28335;SDS011;15592;53.656;7.276;2023-03-29T10:20:17;40.03;;;18.67;;
28335;SDS011;15592;53.656;7.276;2023-03-29T10:22:48;30.45;;;18.80;;
28335;SDS011;15592;53.656;7.276;2023-03-29T10:25:23;30.63;;;18.23;;
28335;SDS011;15592;53.656;7.276;2023-03-29T10:27:51;32.42;;;19.40;;
28335;SDS011;15592;53.656;7.276;2023-03-29T10:30:23;29.27;;;17.75;;
28335;SDS011;15592;53.656;7.276;2023-03-29T10:32:54;30.10;;;18.35;;
28335;SDS011;15592;53.656;7.276;2023-03-29T10:35:24;33.45;;;18.80;;
28335;SDS011;15592;53.656;7.276;2023-03-29T10:37:52;26.85;;;17.20;;
28335;SDS011;15592;53.656;7.276;2023-03-29T10:40:30;32.47;;;18.17;;
28335;SDS011;15592;53.656;7.276;2023-03-29T10:42:59;25.85;;;16.42;;
28335;SDS011;15592;53.656;7.276;2023-03-29T10:45:27;28.30;;;17.67;;
28335;SDS011;15592;53.656;7.276;2023-03-29T10:47:55;25.92;;;16.58;;
28335;SDS011;15592;53.656;7.276;2023-03-29T10:50:22;32.10;;;17.27;;
28335;SDS011;15592;53.656;7.276;2023-03-29T10:52:48;28.17;;;18.00;;
28335;SDS011;15592;53.656;7.276;2023-03-29T10:55:14;30.52;;;17.33;;
28335;SDS011;15592;53.656;7.276;2023-03-29T10:57:45;24.38;;;16.35;;
28335;SDS011;15592;53.656;7.276;2023-03-29T11:05:35;28.45;;;17.17;;
28335;SDS011;15592;53.656;7.276;2023-03-29T11:18:59;30.05;;;18.77;;
28335;SDS011;15592;53.656;7.276;2023-03-29T11:24:42;23.55;;;15.15;;
28335;SDS011;15592;53.656;7.276;2023-03-29T11:27:21;27.55;;;16.75;;
28335;SDS011;15592;53.656;7.276;2023-03-29T11:35:49;22.33;;;14.82;;
28335;SDS011;15592;53.656;7.276;2023-03-29T11:38:56;25.63;;;15.25;;
28335;SDS011;15592;53.656;7.276;2023-03-29T11:41:40;23.00;;;14.30;;
28335;SDS011;15592;53.656;7.276;2023-03-29T11:44:10;29.63;;;18.08;;
28335;SDS011;15592;53.656;7.276;2023-03-29T11:47:26;29.42;;;18.50;;
28335;SDS011;15592;53.656;7.276;2023-03-29T11:49:45;28.70;;;16.40;;
28335;SDS011;15592;53.656;7.276;2023-03-29T11:55:36;26.13;;;16.02;;
28335;SDS011;15592;53.656;7.276;2023-03-29T11:58:17;32.55;;;17.75;;
28335;SDS011;15592;53.656;7.276;2023-03-29T12:00:47;33.25;;;18.77;;
28335;SDS011;15592;53.656;7.276;2023-03-29T12:09:11;33.00;;;16.80;;
28335;SDS011;15592;53.656;7.276;2023-03-29T12:11:56;28.40;;;16.88;;
28335;SDS011;15592;53.656;7.276;2023-03-29T12:17:13;28.27;;;16.27;;
28335;SDS011;15592;53.656;7.276;2023-03-29T12:19:54;30.10;;;17.77;;
28335;SDS011;15592;53.656;7.276;2023-03-29T12:23:01;26.60;;;16.13;;
28335;SDS011;15592;53.656;7.276;2023-03-29T12:34:00;31.42;;;16.83;;
28335;SDS011;15592;53.656;7.276;2023-03-29T12:39:17;30.23;;;16.05;;
28335;SDS011;15592;53.656;7.276;2023-03-29T12:41:44;21.80;;;13.88;;
28335;SDS011;15592;53.656;7.276;2023-03-29T12:44:15;20.00;;;12.38;;
28335;SDS011;15592;53.656;7.276;2023-03-29T12:46:44;22.35;;;13.45;;
28335;SDS011;15592;53.656;7.276;2023-03-29T12:49:16;21.88;;;14.10;;
28335;SDS011;15592;53.656;7.276;2023-03-29T12:51:59;26.77;;;15.63;;
28335;SDS011;15592;53.656;7.276;2023-03-29T12:54:32;29.77;;;17.45;;
28335;SDS011;15592;53.656;7.276;2023-03-29T12:57:01;27.67;;;16.52;;
28335;SDS011;15592;53.656;7.276;2023-03-29T12:59:45;28.08;;;15.75;;
28335;SDS011;15592;53.656;7.276;2023-03-29T13:04:51;28.88;;;16.25;;
28335;SDS011;15592;53.656;7.276;2023-03-29T13:09:48;25.92;;;16.50;;
28335;SDS011;15592;53.656;7.276;2023-03-29T13:14:44;26.98;;;17.38;;
28335;SDS011;15592;53.656;7.276;2023-03-29T13:17:24;28.77;;;18.30;;
28335;SDS011;15592;53.656;7.276;2023-03-29T13:31:10;30.27;;;16.45;;
28335;SDS011;15592;53.656;7.276;2023-03-29T13:36:26;26.20;;;16.95;;
28335;SDS011;15592;53.656;7.276;2023-03-29T13:38:55;27.60;;;17.45;;
28335;SDS011;15592;53.656;7.276;2023-03-29T13:41:44;29.02;;;17.05;;
28335;SDS011;15592;53.656;7.276;2023-03-29T13:49:52;28.00;;;17.15;;
28335;SDS011;15592;53.656;7.276;2023-03-29T13:52:25;27.02;;;16.92;;
28335;SDS011;15592;53.656;7.276;2023-03-29T13:57:38;26.23;;;16.13;;
28335;SDS011;15592;53.656;7.276;2023-03-29T14:02:47;24.13;;;16.45;;
28335;SDS011;15592;53.656;7.276;2023-03-29T14:05:23;23.08;;;16.75;;
28335;SDS011;15592;53.656;7.276;2023-03-29T14:07:55;24.90;;;15.68;;
28335;SDS011;15592;53.656;7.276;2023-03-29T14:10:26;29.15;;;18.00;;
28335;SDS011;15592;53.656;7.276;2023-03-29T14:12:57;27.00;;;17.40;;
28335;SDS011;15592;53.656;7.276;2023-03-29T14:15:26;31.67;;;17.30;;
28335;SDS011;15592;53.656;7.276;2023-03-29T14:18:01;26.17;;;17.05;;
28335;SDS011;15592;53.656;7.276;2023-03-29T14:20:27;26.73;;;17.38;;
28335;SDS011;15592;53.656;7.276;2023-03-29T14:22:55;24.00;;;16.88;;
28335;SDS011;15592;53.656;7.276;2023-03-29T14:25:21;26.20;;;17.80;;
28335;SDS011;15592;53.656;7.276;2023-03-29T14:27:48;24.80;;;16.55;;
28335;SDS011;15592;53.656;7.276;2023-03-29T14:30:27;27.10;;;16.77;;
28335;SDS011;15592;53.656;7.276;2023-03-29T14:32:53;24.95;;;15.90;;
28335;SDS011;15592;53.656;7.276;2023-03-29T14:35:25;27.23;;;18.13;;
28335;SDS011;15592;53.656;7.276;2023-03-29T14:37:53;28.67;;;16.73;;
28335;SDS011;15592;53.656;7.276;2023-03-29T14:40:19;22.73;;;15.13;;
28335;SDS011;15592;53.656;7.276;2023-03-29T14:42:46;26.35;;;16.88;;
28335;SDS011;15592;53.656;7.276;2023-03-29T14:45:14;27.65;;;16.42;;
28335;SDS011;15592;53.656;7.276;2023-03-29T14:47:42;32.00;;;18.45;;
28335;SDS011;15592;53.656;7.276;2023-03-29T14:50:16;23.48;;;16.85;;
28335;SDS011;15592;53.656;7.276;2023-03-29T14:52:45;26.42;;;17.05;;
28335;SDS011;15592;53.656;7.276;2023-03-29T14:55:12;26.80;;;15.10;;
28335;SDS011;15592;53.656;7.276;2023-03-29T14:57:40;22.83;;;15.45;;
28335;SDS011;15592;53.656;7.276;2023-03-29T15:02:57;21.92;;;16.27;;
28335;SDS011;15592;53.656;7.276;2023-03-29T15:05:35;23.25;;;16.00;;
28335;SDS011;15592;53.656;7.276;2023-03-29T15:08:03;25.00;;;16.17;;
28335;SDS011;15592;53.656;7.276;2023-03-29T15:10:34;23.67;;;15.15;;
28335;SDS011;15592;53.656;7.276;2023-03-29T15:13:02;21.00;;;13.98;;
28335;SDS011;15592;53.656;7.276;2023-03-29T15:15:31;21.00;;;14.57;;
28335;SDS011;15592;53.656;7.276;2023-03-29T15:17:59;21.88;;;13.82;;
28335;SDS011;15592;53.656;7.276;2023-03-29T15:20:33;22.70;;;14.38;;
28335;SDS011;15592;53.656;7.276;2023-03-29T15:28:01;18.92;;;13.68;;
28335;SDS011;15592;53.656;7.276;2023-03-29T15:30:42;19.00;;;13.73;;
28335;SDS011;15592;53.656;7.276;2023-03-29T15:33:17;23.83;;;14.50;;
28335;SDS011;15592;53.656;7.276;2023-03-29T15:35:48;20.52;;;14.07;;
28335;SDS011;15592;53.656;7.276;2023-03-29T15:38:15;19.27;;;13.40;;
28335;SDS011;15592;53.656;7.276;2023-03-29T15:40:41;18.90;;;14.20;;
28335;SDS011;15592;53.656;7.276;2023-03-29T15:43:07;17.75;;;12.82;;
28335;SDS011;15592;53.656;7.276;2023-03-29T15:45:33;18.85;;;13.35;;
28335;SDS011;15592;53.656;7.276;2023-03-29T15:47:59;15.98;;;12.30;;
28335;SDS011;15592;53.656;7.276;2023-03-29T15:50:29;17.83;;;12.18;;
28335;SDS011;15592;53.656;7.276;2023-03-29T15:52:55;20.38;;;13.00;;
28335;SDS011;15592;53.656;7.276;2023-03-29T15:55:24;19.67;;;13.75;;
28335;SDS011;15592;53.656;7.276;2023-03-29T15:57:53;20.08;;;13.48;;
28335;SDS011;15592;53.656;7.276;2023-03-29T16:00:19;19.42;;;13.65;;
28335;SDS011;15592;53.656;7.276;2023-03-29T16:02:46;18.58;;;12.45;;
28335;SDS011;15592;53.656;7.276;2023-03-29T16:05:12;22.98;;;13.93;;
28335;SDS011;15592;53.656;7.276;2023-03-29T16:07:38;20.73;;;13.57;;
28335;SDS011;15592;53.656;7.276;2023-03-29T16:15:39;17.20;;;11.70;;
28335;SDS011;15592;53.656;7.276;2023-03-29T16:18:09;16.38;;;11.70;;
28335;SDS011;15592;53.656;7.276;2023-03-29T16:20:34;19.10;;;12.20;;
28335;SDS011;15592;53.656;7.276;2023-03-29T16:23:46;15.68;;;10.77;;
28335;SDS011;15592;53.656;7.276;2023-03-29T16:26:48;17.70;;;10.82;;
28335;SDS011;15592;53.656;7.276;2023-03-29T16:29:16;16.45;;;10.93;;
28335;SDS011;15592;53.656;7.276;2023-03-29T16:31:42;15.45;;;11.10;;
28335;SDS011;15592;53.656;7.276;2023-03-29T16:34:08;14.68;;;10.82;;
28335;SDS011;15592;53.656;7.276;2023-03-29T16:36:37;18.15;;;10.75;;
28335;SDS011;15592;53.656;7.276;2023-03-29T16:39:03;15.30;;;10.45;;
28335;SDS011;15592;53.656;7.276;2023-03-29T16:41:32;15.60;;;10.77;;
28335;SDS011;15592;53.656;7.276;2023-03-29T16:43:58;17.38;;;10.77;;
28335;SDS011;15592;53.656;7.276;2023-03-29T16:46:23;19.00;;;11.40;;
28335;SDS011;15592;53.656;7.276;2023-03-29T16:48:50;18.17;;;11.52;;
28335;SDS011;15592;53.656;7.276;2023-03-29T16:51:17;20.00;;;11.43;;
28335;SDS011;15592;53.656;7.276;2023-03-29T16:53:46;14.20;;;10.65;;
28335;SDS011;15592;53.656;7.276;2023-03-29T16:56:13;16.45;;;10.75;;
28335;SDS011;15592;53.656;7.276;2023-03-29T16:58:40;18.20;;;11.75;;